Time;durP1;ratioP1;P1;durP2;ratioP2;P2;SDS_P1;SDS_P2;PMS_P1;PMS_P2;Temp;Humidity;BMP_temperature;BMP_pressure;BME280_temperature;BME280_humidity;BME280_pressure;Samples;Min_cycle;Max_cycle;Signal;HPM_P1;HPM_P2
2022/01/29 00:01:19;;;;;;;1.52;1.20;;;10.00;99.90;;;;;;5061388;28;20083;-60
2022/01/29 00:03:46;;;;;;;1.10;1.00;;;10.10;99.90;;;;;;5055321;28;20064;-60
2022/01/29 00:06:14;;;;;;;1.63;1.33;;;10.10;99.90;;;;;;5054458;28;20106;-60
2022/01/29 00:08:40;;;;;;;1.40;1.10;;;10.10;99.90;;;;;;5049868;28;20092;-59
2022/01/29 00:11:11;;;;;;;1.10;1.00;;;10.10;99.90;;;;;;5059716;28;20131;-59
2022/01/29 00:13:38;;;;;;;1.48;1.20;;;10.10;99.90;;;;;;5061535;28;20040;-59
2022/01/29 00:16:05;;;;;;;1.95;1.30;;;10.10;99.90;;;;;;5055591;28;20106;-60
2022/01/29 00:18:33;;;;;;;1.17;1.08;;;10.10;99.90;;;;;;5058716;28;20048;-60
2022/01/29 00:21:01;;;;;;;1.65;1.10;;;10.20;99.90;;;;;;5061475;28;20088;-60
2022/01/29 00:23:28;;;;;;;1.52;1.27;;;10.20;99.90;;;;;;5064643;28;20083;-60
2022/01/29 00:25:55;;;;;;;1.17;1.05;;;10.20;99.90;;;;;;5064690;28;20052;-60
2022/01/29 00:28:22;;;;;;;1.17;1.02;;;10.20;99.90;;;;;;5063693;28;20088;-59
2022/01/29 00:30:49;;;;;;;1.40;1.20;;;10.20;99.90;;;;;;5064441;28;20137;-60
2022/01/29 00:33:15;;;;;;;1.77;1.10;;;10.20;99.90;;;;;;5064337;28;20080;-60
2022/01/29 00:35:42;;;;;;;1.65;1.25;;;10.30;99.90;;;;;;5064655;28;20157;-60
2022/01/29 00:38:09;;;;;;;1.98;1.10;;;10.20;99.90;;;;;;5063026;28;20075;-60
2022/01/29 00:40:39;;;;;;;1.48;1.02;;;10.20;99.90;;;;;;5064948;28;20121;-60
2022/01/29 00:43:06;;;;;;;1.40;0.95;;;10.20;99.90;;;;;;5063025;28;20091;-60
2022/01/29 00:45:32;;;;;;;1.35;0.90;;;10.30;99.90;;;;;;5063232;28;20076;-60
2022/01/29 00:47:59;;;;;;;1.30;1.13;;;10.30;99.90;;;;;;5064442;28;20122;-60
2022/01/29 00:50:26;;;;;;;0.88;0.82;;;10.30;99.90;;;;;;5063042;28;20098;-60
2022/01/29 00:52:53;;;;;;;1.50;0.93;;;10.30;99.90;;;;;;5064599;28;20271;-60
2022/01/29 00:55:20;;;;;;;1.33;0.98;;;10.30;99.90;;;;;;5064195;28;20128;-60
2022/01/29 00:57:47;;;;;;;1.52;1.40;;;10.40;99.90;;;;;;5064236;28;20409;-60
2022/01/29 01:00:14;;;;;;;1.08;0.98;;;10.40;99.90;;;;;;5062995;28;20091;-60
2022/01/29 01:02:41;;;;;;;0.88;0.68;;;10.40;99.90;;;;;;5064736;28;20044;-60
2022/01/29 01:05:08;;;;;;;1.23;0.77;;;10.40;99.90;;;;;;5063789;28;20064;-60
2022/01/29 01:07:35;;;;;;;1.38;0.95;;;10.40;99.90;;;;;;5062510;28;20076;-60
2022/01/29 01:10:03;;;;;;;2.53;0.80;;;10.40;99.90;;;;;;5063683;28;20133;-60
2022/01/29 01:12:30;;;;;;;1.30;1.10;;;10.40;99.90;;;;;;5064291;28;20657;-60
2022/01/29 01:14:56;;;;;;;0.70;0.70;;;10.50;99.90;;;;;;5061083;28;20132;-60
2022/01/29 01:17:23;;;;;;;0.68;0.60;;;10.50;99.90;;;;;;5063075;28;20068;-60
2022/01/29 01:19:50;;;;;;;0.73;0.63;;;10.50;99.90;;;;;;5063626;28;20076;-60
2022/01/29 01:22:17;;;;;;;0.73;0.68;;;10.50;99.90;;;;;;5064198;28;20095;-60
2022/01/29 01:24:47;;;;;;;1.20;0.82;;;10.50;99.90;;;;;;5063399;28;20131;-61
2022/01/29 01:27:15;;;;;;;0.98;0.70;;;10.50;99.90;;;;;;5051533;28;20072;-60
2022/01/29 01:29:42;;;;;;;0.80;0.80;;;10.60;99.90;;;;;;5048735;28;20633;-60
2022/01/29 01:32:12;;;;;;;1.15;0.75;;;10.60;99.90;;;;;;5060236;28;20083;-59
2022/01/29 01:34:44;;;;;;;1.25;0.75;;;10.60;99.90;;;;;;5063795;28;20471;-60
2022/01/29 01:37:18;;;;;;;1.15;0.80;;;10.50;99.90;;;;;;5063659;28;20314;-59
2022/01/29 01:39:44;;;;;;;;;;;10.60;99.90;;;;;;5059226;28;20413;-60
2022/01/29 01:42:11;;;;;;;0.90;0.82;;;10.60;99.90;;;;;;5057697;28;19986;-60
2022/01/29 01:44:40;;;;;;;0.88;0.70;;;10.60;99.90;;;;;;5055239;28;20118;-60
2022/01/29 01:47:07;;;;;;;0.70;0.68;;;10.60;99.90;;;;;;5063390;28;20086;-60
2022/01/29 01:49:34;;;;;;;0.80;0.70;;;10.60;99.90;;;;;;5056711;28;20216;-60
2022/01/29 01:52:01;;;;;;;1.35;0.88;;;10.60;99.90;;;;;;5057583;28;20049;-60
2022/01/29 01:54:28;;;;;;;1.00;0.80;;;10.60;99.90;;;;;;5057117;28;20094;-60
2022/01/29 01:56:54;;;;;;;0.65;0.60;;;10.70;99.90;;;;;;5057855;28;20080;-60
2022/01/29 01:59:21;;;;;;;1.20;0.75;;;10.70;99.90;;;;;;5060963;28;20128;-60
2022/01/29 02:01:48;;;;;;;1.30;0.90;;;10.70;99.90;;;;;;5063982;28;20385;-59
2022/01/29 02:04:15;;;;;;;1.27;0.65;;;10.70;99.90;;;;;;5061771;28;20333;-60
2022/01/29 02:06:42;;;;;;;1.10;0.90;;;10.70;99.90;;;;;;5061486;28;20115;-60
2022/01/29 02:09:11;;;;;;;0.77;0.70;;;10.70;99.90;;;;;;5061494;28;20571;-60
2022/01/29 02:11:47;;;;;;;0.63;0.60;;;10.70;99.90;;;;;;5062933;28;20135;-59
2022/01/29 02:14:14;;;;;;;1.60;0.60;;;10.70;99.90;;;;;;5059322;28;20144;-60
2022/01/29 02:16:40;;;;;;;1.00;0.70;;;10.60;99.90;;;;;;5061497;28;20479;-60
2022/01/29 02:19:07;;;;;;;1.63;0.95;;;10.70;99.90;;;;;;5061801;28;20045;-60
2022/01/29 02:21:37;;;;;;;0.90;0.60;;;10.60;99.90;;;;;;5052744;28;20056;-60
2022/01/29 02:24:04;;;;;;;2.38;0.85;;;10.60;99.90;;;;;;5048500;28;20075;-59
2022/01/29 02:26:31;;;;;;;1.65;0.63;;;10.60;99.90;;;;;;5058045;28;20132;-60
2022/01/29 02:28:58;;;;;;;0.50;0.40;;;10.60;99.90;;;;;;5043553;28;20132;-60
2022/01/29 02:31:25;;;;;;;1.15;0.75;;;10.60;99.90;;;;;;5049789;28;20080;-60
2022/01/29 02:33:52;;;;;;;1.08;0.70;;;10.70;99.90;;;;;;5058073;28;20045;-60
2022/01/29 02:36:18;;;;;;;0.93;0.60;;;10.70;99.90;;;;;;5062391;28;20083;-59
2022/01/29 02:38:45;;;;;;;0.88;0.60;;;10.70;99.90;;;;;;5056003;28;20083;-60
2022/01/29 02:41:12;;;;;;;0.82;0.50;;;10.70;99.90;;;;;;5061296;28;20080;-60
2022/01/29 02:43:47;;;;;;;0.85;0.52;;;10.70;99.90;;;;;;5053011;28;20400;-60
2022/01/29 02:48:49;;;;;;;0.55;0.50;;;10.70;99.90;;;;;;5052137;28;20049;-60
2022/01/29 02:51:16;;;;;;;1.02;0.60;;;10.70;99.90;;;;;;5055028;28;20088;-60
2022/01/29 02:53:43;;;;;;;1.23;0.60;;;10.70;99.90;;;;;;5063885;28;20146;-60
2022/01/29 02:56:10;;;;;;;0.60;0.50;;;10.70;99.90;;;;;;5062228;28;20128;-60
2022/01/29 02:58:37;;;;;;;0.73;0.60;;;10.70;99.90;;;;;;5058192;28;20127;-60
2022/01/29 03:01:05;;;;;;;0.40;0.30;;;10.80;99.90;;;;;;5058027;28;20444;-60
2022/01/29 03:03:32;;;;;;;0.88;0.50;;;10.80;99.90;;;;;;5059946;28;20049;-60
2022/01/29 03:06:01;;;;;;;1.63;0.50;;;10.80;99.90;;;;;;5063667;28;20048;-60
2022/01/29 03:08:28;;;;;;;0.82;0.50;;;10.80;99.90;;;;;;5063866;28;20072;-60
2022/01/29 03:10:55;;;;;;;0.65;0.40;;;10.80;99.90;;;;;;5064383;28;20397;-60
2022/01/29 03:13:22;;;;;;;1.40;0.95;;;10.80;99.90;;;;;;5061940;28;20280;-60
2022/01/29 03:15:48;;;;;;;1.00;0.50;;;10.80;99.90;;;;;;5058982;28;20057;-60
2022/01/29 03:18:15;;;;;;;1.60;0.40;;;10.80;99.90;;;;;;5063186;28;20055;-60
2022/01/29 03:20:42;;;;;;;0.73;0.40;;;10.90;99.90;;;;;;5064036;28;20110;-61
2022/01/29 03:23:09;;;;;;;0.40;0.40;;;10.90;99.90;;;;;;5063246;28;20082;-60
2022/01/29 03:25:35;;;;;;;1.27;0.50;;;10.90;99.90;;;;;;5063983;28;20083;-60
2022/01/29 03:28:02;;;;;;;0.70;0.45;;;10.90;99.90;;;;;;5062356;28;20411;-60
2022/01/29 03:30:29;;;;;;;0.22;0.22;;;10.90;99.90;;;;;;5063263;28;20483;-60
2022/01/29 03:32:56;;;;;;;0.55;0.40;;;10.90;99.90;;;;;;5063216;28;20087;-60
2022/01/29 03:35:22;;;;;;;0.80;0.40;;;11.00;99.90;;;;;;5060998;28;20080;-60
2022/01/29 03:37:49;;;;;;;0.57;0.40;;;11.00;99.90;;;;;;5063065;28;20131;-58
2022/01/29 03:40:16;;;;;;;1.15;0.40;;;11.00;99.90;;;;;;5063042;28;20119;-60
2022/01/29 03:42:48;;;;;;;0.60;0.40;;;11.00;99.90;;;;;;5063352;28;20149;-59
2022/01/29 03:45:19;;;;;;;0.85;0.30;;;11.00;99.90;;;;;;5062085;28;20631;-60
2022/01/29 03:47:45;;;;;;;0.57;0.30;;;11.00;99.90;;;;;;5063497;28;20049;-60
2022/01/29 03:50:12;;;;;;;2.10;0.52;;;11.00;99.90;;;;;;5063313;28;20084;-60
2022/01/29 03:52:39;;;;;;;1.27;0.40;;;11.00;99.90;;;;;;5063339;28;20094;-60
2022/01/29 03:55:06;;;;;;;2.20;0.68;;;11.00;99.90;;;;;;5062601;28;20048;-60
2022/01/29 03:57:33;;;;;;;1.15;0.55;;;11.00;99.90;;;;;;5063877;28;20084;-60
2022/01/29 04:00:01;;;;;;;1.05;0.50;;;11.00;99.90;;;;;;5061237;28;20167;-60
2022/01/29 04:02:28;;;;;;;0.88;0.57;;;11.00;99.90;;;;;;5062380;28;20395;-60
2022/01/29 04:04:55;;;;;;;1.65;0.40;;;11.00;99.90;;;;;;5062648;28;20045;-60
2022/01/29 04:07:22;;;;;;;1.70;0.50;;;11.00;99.90;;;;;;5063423;28;20076;-60
2022/01/29 04:09:51;;;;;;;0.80;0.52;;;11.00;99.90;;;;;;5063122;28;20048;-60
2022/01/29 04:12:18;;;;;;;1.63;0.52;;;11.00;99.90;;;;;;5063195;28;20136;-59
2022/01/29 04:14:44;;;;;;;0.82;0.50;;;11.00;99.90;;;;;;5061459;28;20443;-60
2022/01/29 04:17:11;;;;;;;0.95;0.60;;;11.00;99.90;;;;;;5063388;28;20072;-60
2022/01/29 04:19:38;;;;;;;0.57;0.43;;;11.10;99.90;;;;;;5061104;28;20080;-60
2022/01/29 04:22:05;;;;;;;0.90;0.45;;;11.10;99.90;;;;;;5059159;28;20083;-60
2022/01/29 04:24:33;;;;;;;1.00;0.50;;;11.10;99.90;;;;;;5060045;28;20137;-60
2022/01/29 04:27:01;;;;;;;1.27;0.60;;;11.10;99.90;;;;;;5049701;28;20096;-60
2022/01/29 04:29:36;;;;;;;0.57;0.40;;;11.10;99.90;;;;;;5060612;28;20109;-59
2022/01/29 04:32:12;;;;;;;0.70;0.52;;;11.10;99.90;;;;;;5062277;28;20056;-60
2022/01/29 04:34:38;;;;;;;0.88;0.50;;;11.10;99.90;;;;;;5057132;28;20251;-60
2022/01/29 04:37:06;;;;;;;0.68;0.45;;;11.10;99.90;;;;;;5059409;28;20519;-60
2022/01/29 04:39:33;;;;;;;0.43;0.40;;;11.10;99.90;;;;;;5062475;28;20107;-60
2022/01/29 04:41:59;;;;;;;0.40;0.40;;;11.10;99.90;;;;;;5062675;28;20224;-60
2022/01/29 04:44:26;;;;;;;1.05;0.70;;;11.10;99.90;;;;;;5058629;28;20698;-60
2022/01/29 04:46:53;;;;;;;1.85;0.50;;;11.20;99.90;;;;;;5063096;28;20528;-59
2022/01/29 04:49:20;;;;;;;1.75;0.55;;;11.20;99.90;;;;;;5061227;28;20083;-60
2022/01/29 04:51:46;;;;;;;0.82;0.45;;;11.20;99.90;;;;;;5063782;28;20087;-60
2022/01/29 04:54:13;;;;;;;1.67;0.80;;;11.20;99.90;;;;;;5065817;28;20119;-60
2022/01/29 04:56:40;;;;;;;1.02;0.60;;;11.20;99.90;;;;;;5066389;28;20247;-60
2022/01/29 04:59:06;;;;;;;1.58;0.65;;;11.20;99.90;;;;;;5064377;28;20049;-60
2022/01/29 05:01:33;;;;;;;1.10;0.60;;;11.30;99.90;;;;;;5066007;28;20084;-60
2022/01/29 05:04:00;;;;;;;0.75;0.50;;;11.30;99.90;;;;;;5065438;28;20052;-60
2022/01/29 05:06:27;;;;;;;0.43;0.40;;;11.30;99.90;;;;;;5066401;28;20112;-60
2022/01/29 05:08:54;;;;;;;1.85;0.88;;;11.30;99.90;;;;;;5064517;28;20155;-60
2022/01/29 05:11:20;;;;;;;1.13;0.70;;;11.30;99.90;;;;;;5064866;28;20152;-60
2022/01/29 05:13:47;;;;;;;1.35;0.70;;;11.30;99.90;;;;;;5064251;28;20156;-60
2022/01/29 05:16:36;;;;;;;1.08;0.85;;;11.30;99.90;;;;;;5064957;28;20084;-60
2022/01/29 05:27:24;;;;;;;1.92;0.90;;;11.30;99.90;;;;;;5064467;28;20049;-60
2022/01/29 05:29:51;;;;;;;2.13;1.00;;;11.30;99.90;;;;;;5062439;28;20045;-60
2022/01/29 05:32:18;;;;;;;3.20;1.00;;;11.30;99.90;;;;;;5064298;28;20080;-60
2022/01/29 05:34:44;;;;;;;1.30;0.70;;;11.30;99.90;;;;;;5065229;28;20118;-61
2022/01/29 05:37:31;;;;;;;0.88;0.80;;;11.30;99.90;;;;;;5065790;28;20139;-60
2022/01/29 05:39:58;;;;;;;1.30;0.80;;;11.30;99.90;;;;;;5065181;28;20080;-60
2022/01/29 05:42:25;;;;;;;1.67;1.25;;;11.30;99.90;;;;;;5065870;28;20167;-59
2022/01/29 05:44:51;;;;;;;1.10;1.00;;;11.30;99.90;;;;;;5063060;28;20106;-60
2022/01/29 05:47:18;;;;;;;2.53;1.08;;;11.30;99.90;;;;;;5065390;28;20084;-61
2022/01/29 05:49:45;;;;;;;2.22;1.10;;;11.30;99.90;;;;;;5065375;28;20086;-60
2022/01/29 05:52:11;;;;;;;1.15;0.80;;;11.30;99.90;;;;;;5065693;28;20104;-60
2022/01/29 05:54:38;;;;;;;0.70;0.70;;;11.30;99.90;;;;;;5064958;28;20135;-60
2022/01/29 05:57:05;;;;;;;1.10;0.80;;;11.30;99.90;;;;;;5065418;28;20056;-60
2022/01/29 05:59:35;;;;;;;0.95;0.70;;;11.30;99.90;;;;;;5061542;28;20098;-60
2022/01/29 06:02:02;;;;;;;2.15;0.90;;;11.30;99.90;;;;;;5064804;28;20103;-60
2022/01/29 06:04:29;;;;;;;1.52;1.25;;;11.20;99.90;;;;;;5059526;28;20562;-60
2022/01/29 06:06:55;;;;;;;1.52;1.00;;;11.20;99.90;;;;;;5063047;28;20084;-60
2022/01/29 06:09:22;;;;;;;1.63;0.82;;;11.20;99.90;;;;;;5062821;28;20327;-60
2022/01/29 06:11:49;;;;;;;1.92;0.80;;;11.20;99.90;;;;;;5063561;28;20086;-60
2022/01/29 06:14:16;;;;;;;1.13;0.60;;;11.20;99.90;;;;;;5060303;28;20060;-60
2022/01/29 06:16:42;;;;;;;0.50;0.50;;;11.20;99.90;;;;;;5063226;28;20496;-60
2022/01/29 06:19:09;;;;;;;1.00;0.70;;;11.20;99.90;;;;;;5062280;28;20110;-60
2022/01/29 06:21:36;;;;;;;0.80;0.63;;;11.20;99.90;;;;;;5063064;28;20057;-60
2022/01/29 06:24:03;;;;;;;0.82;0.70;;;11.20;99.90;;;;;;5061001;28;20040;-60
2022/01/29 06:26:30;;;;;;;1.10;0.70;;;11.20;99.90;;;;;;5052831;28;20193;-60
2022/01/29 06:28:59;;;;;;;1.08;0.60;;;11.20;99.90;;;;;;5042299;28;20522;-60
2022/01/29 06:31:26;;;;;;;1.63;0.60;;;11.20;99.90;;;;;;5044302;28;20080;-60
2022/01/29 06:33:52;;;;;;;0.68;0.50;;;11.20;99.90;;;;;;5053370;28;20423;-60
2022/01/29 06:36:19;;;;;;;1.17;0.45;;;11.20;99.90;;;;;;5049574;28;20077;-59
2022/01/29 06:38:46;;;;;;;0.65;0.40;;;11.20;99.90;;;;;;5041980;28;20625;-60
2022/01/29 06:41:13;;;;;;;0.52;0.50;;;11.20;99.90;;;;;;5045421;28;20144;-59
2022/01/29 06:43:39;;;;;;;0.93;0.52;;;11.20;99.90;;;;;;5053414;28;20136;-60
2022/01/29 06:46:06;;;;;;;0.75;0.40;;;11.10;99.90;;;;;;5058674;28;20151;-60
2022/01/29 06:48:33;;;;;;;0.40;0.40;;;11.10;99.90;;;;;;5062155;28;20044;-60
2022/01/29 06:51:00;;;;;;;0.47;0.40;;;11.10;99.90;;;;;;5062101;28;20148;-60
2022/01/29 06:53:26;;;;;;;0.40;0.40;;;11.20;99.90;;;;;;5060563;28;20118;-60
2022/01/29 06:55:53;;;;;;;0.50;0.50;;;11.20;99.90;;;;;;5055078;28;20486;-60
2022/01/29 06:58:20;;;;;;;0.65;0.40;;;11.10;99.90;;;;;;5049682;28;20080;-60
2022/01/29 07:01:07;;;;;;;0.82;0.57;;;11.10;99.90;;;;;;5048935;28;20037;-59
2022/01/29 07:03:34;;;;;;;0.60;0.40;;;11.10;99.90;;;;;;5055620;28;20159;-61
2022/01/29 07:06:01;;;;;;;0.40;0.38;;;11.10;99.90;;;;;;5062035;28;20130;-60
2022/01/29 07:08:28;;;;;;;0.50;0.40;;;11.10;99.90;;;;;;5058563;28;20164;-60
2022/01/29 07:10:54;;;;;;;0.52;0.50;;;11.10;99.90;;;;;;5051868;28;20213;-61
2022/01/29 07:13:22;;;;;;;0.40;0.40;;;11.10;99.90;;;;;;5054542;28;20079;-60
2022/01/29 07:15:48;;;;;;;1.13;0.60;;;11.10;99.90;;;;;;5058895;28;20087;-60
2022/01/29 07:18:15;;;;;;;0.20;0.20;;;11.10;99.90;;;;;;5062075;28;20175;-60
2022/01/29 07:20:42;;;;;;;0.50;0.30;;;11.10;99.90;;;;;;5056194;28;20123;-60
2022/01/29 07:23:09;;;;;;;0.47;0.40;;;11.10;99.90;;;;;;5061720;28;20133;-60
2022/01/29 07:25:36;;;;;;;0.57;0.30;;;11.10;99.90;;;;;;5052065;28;20492;-60
2022/01/29 07:28:03;;;;;;;0.50;0.28;;;11.10;99.90;;;;;;5060278;28;20049;-61
2022/01/29 07:30:29;;;;;;;0.32;0.32;;;11.10;99.90;;;;;;5056266;28;20072;-60
2022/01/29 07:32:56;;;;;;;0.30;0.30;;;11.00;99.90;;;;;;5048989;28;20676;-60
2022/01/29 07:35:23;;;;;;;0.73;0.40;;;11.00;99.90;;;;;;5053631;28;20040;-59
2022/01/29 07:37:52;;;;;;;0.40;0.40;;;11.00;99.90;;;;;;5061649;28;20088;-60
2022/01/29 07:40:18;;;;;;;0.32;0.30;;;11.00;99.90;;;;;;5061640;28;20052;-61
2022/01/29 07:42:45;;;;;;;0.30;0.30;;;11.00;99.90;;;;;;5060602;28;20111;-60
2022/01/29 07:45:12;;;;;;;1.33;0.43;;;11.00;99.90;;;;;;5060074;28;20170;-60
2022/01/29 07:47:38;;;;;;;0.90;0.30;;;11.00;99.90;;;;;;5060166;28;20425;-60
2022/01/29 07:50:05;;;;;;;0.75;0.40;;;11.00;99.90;;;;;;5061267;28;20122;-60
2022/01/29 07:52:32;;;;;;;0.75;0.40;;;11.10;99.90;;;;;;5061569;28;20441;-60
2022/01/29 07:55:04;;;;;;;0.20;0.20;;;11.00;99.90;;;;;;5059318;28;20040;-60
2022/01/29 07:57:31;;;;;;;0.82;0.50;;;11.00;99.90;;;;;;5061740;28;20541;-60
2022/01/29 07:59:57;;;;;;;0.15;0.15;;;11.00;99.90;;;;;;5059348;28;20084;-60
2022/01/29 08:02:24;;;;;;;0.40;0.30;;;11.00;99.90;;;;;;5061279;28;20461;-60
2022/01/29 08:04:51;;;;;;;0.10;0.10;;;11.00;99.90;;;;;;5061047;28;20509;-60
2022/01/29 08:07:18;;;;;;;0.43;0.40;;;11.00;99.90;;;;;;5061064;28;20087;-61
2022/01/29 08:09:45;;;;;;;0.52;0.30;;;11.00;99.90;;;;;;5060973;28;20132;-60
2022/01/29 08:12:11;;;;;;;1.08;0.25;;;11.00;99.90;;;;;;5060295;28;20076;-60
2022/01/29 08:14:38;;;;;;;0.20;0.20;;;11.00;99.90;;;;;;5058282;28;20130;-60
2022/01/29 08:17:05;;;;;;;0.30;0.30;;;11.00;99.90;;;;;;5061384;28;20108;-60
2022/01/29 08:19:32;;;;;;;0.95;0.30;;;11.00;99.90;;;;;;5060795;28;20140;-60
2022/01/29 08:22:04;;;;;;;1.37;0.47;;;11.00;99.90;;;;;;5061669;28;20040;-60
2022/01/29 08:24:31;;;;;;;0.68;0.30;;;11.10;99.90;;;;;;5060458;28;20164;-60
2022/01/29 08:26:57;;;;;;;0.57;0.28;;;11.10;99.90;;;;;;5062641;28;20119;-60
2022/01/29 08:29:24;;;;;;;0.75;0.32;;;11.10;99.90;;;;;;5063198;28;20123;-60
2022/01/29 08:31:51;;;;;;;0.88;0.38;;;11.20;99.90;;;;;;5065081;28;20040;-60
2022/01/29 08:34:18;;;;;;;0.75;0.30;;;11.20;99.90;;;;;;5064275;28;20052;-60
2022/01/29 08:36:44;;;;;;;1.95;0.55;;;11.20;99.90;;;;;;5064517;28;20087;-60
2022/01/29 08:39:11;;;;;;;0.22;0.20;;;11.20;99.90;;;;;;5064402;28;20093;-60
2022/01/29 08:41:38;;;;;;;1.05;0.57;;;11.20;99.90;;;;;;5065437;28;20051;-60
2022/01/29 08:44:05;;;;;;;0.60;0.38;;;11.20;99.90;;;;;;5062659;28;20401;-60
2022/01/29 08:46:32;;;;;;;0.88;0.47;;;11.20;99.90;;;;;;5062704;28;20044;-60
2022/01/29 08:48:59;;;;;;;1.30;0.32;;;11.20;99.90;;;;;;5064309;28;20093;-60
2022/01/29 08:51:25;;;;;;;1.38;0.60;;;11.10;99.90;;;;;;5065068;28;20045;-60
2022/01/29 08:53:52;;;;;;;0.80;0.32;;;11.20;99.90;;;;;;5063784;28;20132;-60
2022/01/29 08:56:19;;;;;;;1.02;0.38;;;11.20;99.90;;;;;;5064856;28;20102;-61
2022/01/29 08:58:46;;;;;;;0.63;0.30;;;11.20;99.90;;;;;;5062122;28;20135;-60
2022/01/29 09:01:12;;;;;;;1.55;0.82;;;11.30;99.90;;;;;;5045459;28;20371;-60
2022/01/29 09:03:39;;;;;;;3.17;0.77;;;11.40;99.90;;;;;;5064084;28;20070;-60
2022/01/29 09:06:06;;;;;;;0.60;0.30;;;11.40;99.90;;;;;;5063708;28;20088;-60
2022/01/29 09:08:33;;;;;;;1.02;0.50;;;11.50;99.90;;;;;;5063212;28;20411;-60
2022/01/29 09:11:00;;;;;;;0.90;0.28;;;11.50;99.90;;;;;;5064058;28;20092;-60
2022/01/29 09:13:27;;;;;;;0.82;0.25;;;11.50;99.90;;;;;;5061597;28;20564;-60
2022/01/29 09:15:54;;;;;;;0.30;0.30;;;11.60;99.90;;;;;;5062277;28;20095;-60
2022/01/29 09:18:21;;;;;;;1.67;0.40;;;11.60;99.90;;;;;;5063928;28;20847;-60
2022/01/29 09:20:48;;;;;;;0.43;0.30;;;11.60;99.90;;;;;;5063121;28;20140;-60
2022/01/29 09:23:15;;;;;;;1.25;0.40;;;11.60;99.90;;;;;;5063301;28;20438;-60
2022/01/29 09:25:41;;;;;;;2.65;0.80;;;11.50;99.90;;;;;;5063067;28;20139;-60
2022/01/29 09:28:11;;;;;;;0.35;0.20;;;11.50;99.90;;;;;;5062346;28;20088;-60
2022/01/29 09:30:38;;;;;;;0.32;0.30;;;11.50;99.90;;;;;;5062780;28;20124;-60
2022/01/29 09:33:05;;;;;;;2.47;0.40;;;11.50;99.90;;;;;;5063013;28;20056;-60
2022/01/29 09:35:31;;;;;;;0.50;0.40;;;11.50;99.90;;;;;;5063233;28;20162;-60
2022/01/29 09:37:58;;;;;;;1.17;0.50;;;11.50;99.90;;;;;;5062201;28;20120;-58
2022/01/29 09:40:25;;;;;;;3.10;0.50;;;11.50;99.90;;;;;;5063640;28;20044;-60
2022/01/29 09:42:52;;;;;;;0.65;0.40;;;11.60;99.90;;;;;;5062003;28;20123;-59
2022/01/29 09:45:21;;;;;;;0.95;0.40;;;11.70;99.90;;;;;;5061662;28;20129;-58
2022/01/29 09:47:49;;;;;;;2.03;0.40;;;11.80;99.90;;;;;;5063007;28;20098;-60
2022/01/29 09:50:17;;;;;;;1.52;0.60;;;11.90;99.90;;;;;;5063398;28;20236;-61
2022/01/29 09:52:44;;;;;;;1.45;0.60;;;12.00;99.90;;;;;;5063168;28;20129;-60
2022/01/29 09:55:10;;;;;;;0.82;0.50;;;12.00;99.90;;;;;;5061615;28;20413;-60
2022/01/29 09:57:37;;;;;;;1.02;0.40;;;12.00;99.90;;;;;;5063755;28;20080;-60
2022/01/29 10:00:05;;;;;;;2.80;0.80;;;12.00;99.90;;;;;;5061307;28;20495;-61
2022/01/29 10:02:32;;;;;;;1.20;0.60;;;12.00;99.90;;;;;;5062801;28;20045;-61
2022/01/29 10:04:59;;;;;;;0.63;0.40;;;12.00;99.90;;;;;;5062032;28;20044;-60
2022/01/29 10:07:28;;;;;;;1.00;0.47;;;12.00;99.90;;;;;;5062891;28;20109;-60
2022/01/29 10:09:56;;;;;;;1.45;0.50;;;12.00;99.90;;;;;;5062329;28;20491;-60
2022/01/29 10:12:27;;;;;;;3.92;0.80;;;12.00;99.90;;;;;;5062686;28;20666;-59
2022/01/29 10:15:02;;;;;;;2.00;0.70;;;12.00;99.90;;;;;;5060528;28;20063;-60
2022/01/29 10:17:46;;;;;;;2.22;0.65;;;12.10;99.90;;;;;;5062671;28;20454;-60
2022/01/29 10:20:26;;;;;;;4.35;1.35;;;12.10;99.90;;;;;;5062117;28;20088;-60
2022/01/29 10:22:53;;;;;;;1.38;0.63;;;12.10;99.90;;;;;;5062880;28;20080;-60
2022/01/29 10:25:28;;;;;;;0.60;0.38;;;12.00;99.90;;;;;;5061973;28;20128;-60
2022/01/29 10:28:15;;;;;;;1.13;0.45;;;12.00;99.90;;;;;;5062414;28;20098;-59
2022/01/29 10:30:48;;;;;;;1.65;0.60;;;12.10;99.90;;;;;;5062025;28;20094;-60
2022/01/29 10:33:35;;;;;;;2.88;1.05;;;12.10;99.90;;;;;;5061758;28;20056;-60
2022/01/29 10:36:06;;;;;;;1.98;0.85;;;12.10;99.90;;;;;;5062071;28;20088;-60
2022/01/29 10:38:41;;;;;;;1.25;0.90;;;12.10;99.90;;;;;;5062240;28;20083;-60
2022/01/29 10:41:22;;;;;;;1.00;0.50;;;12.20;99.90;;;;;;5062505;28;20302;-60
2022/01/29 10:43:55;;;;;;;1.00;0.38;;;12.20;99.90;;;;;;5060606;28;20625;-60
2022/01/29 10:46:29;;;;;;;0.63;0.40;;;12.40;99.90;;;;;;5061828;28;20044;-60
2022/01/29 10:48:59;;;;;;;1.48;0.70;;;12.40;99.90;;;;;;5061451;28;20494;-60
2022/01/29 10:51:26;;;;;;;1.55;0.55;;;12.40;99.90;;;;;;5061870;28;20368;-60
2022/01/29 10:53:53;;;;;;;1.50;0.60;;;12.50;99.90;;;;;;5061202;28;20057;-60
2022/01/29 10:56:21;;;;;;;1.83;1.00;;;12.50;99.90;;;;;;5061986;28;20040;-60
2022/01/29 10:58:50;;;;;;;1.48;0.60;;;12.50;99.90;;;;;;5060542;28;20136;-60
2022/01/29 11:01:19;;;;;;;1.45;0.60;;;12.60;99.90;;;;;;5061828;28;20080;-60
2022/01/29 11:03:46;;;;;;;2.00;0.60;;;12.60;99.90;;;;;;5061253;28;20056;-60
2022/01/29 11:06:16;;;;;;;2.03;0.65;;;12.70;99.90;;;;;;5061531;28;20450;-62
2022/01/29 11:08:43;;;;;;;1.25;0.55;;;12.70;99.90;;;;;;5061476;28;20060;-60
2022/01/29 11:11:09;;;;;;;2.88;1.02;;;12.80;99.90;;;;;;5061539;28;20467;-60
2022/01/29 11:13:56;;;;;;;1.42;0.70;;;12.80;99.90;;;;;;5044547;28;20170;-60
2022/01/29 11:16:23;;;;;;;1.60;0.70;;;12.80;99.90;;;;;;5042345;28;20155;-60
2022/01/29 11:18:51;;;;;;;1.45;0.80;;;12.90;99.90;;;;;;5060554;28;20076;-60
2022/01/29 11:21:18;;;;;;;1.92;0.60;;;12.90;99.90;;;;;;5044196;28;20049;-60
2022/01/29 11:23:44;;;;;;;0.98;0.50;;;12.90;99.90;;;;;;5059657;28;20152;-60
2022/01/29 11:26:11;;;;;;;1.35;0.60;;;12.90;99.90;;;;;;5059796;28;20089;-60
2022/01/29 11:28:38;;;;;;;1.42;0.68;;;12.90;99.90;;;;;;5060477;28;20531;-60
2022/01/29 11:31:11;;;;;;;1.65;0.93;;;12.90;99.90;;;;;;5061450;28;20127;-60
2022/01/29 11:33:57;;;;;;;3.65;0.75;;;12.90;99.90;;;;;;5061070;28;20056;-60
2022/01/29 11:36:48;;;;;;;1.77;0.85;;;13.00;99.90;;;;;;5061750;28;20052;-61
2022/01/29 11:39:18;;;;;;;2.15;0.88;;;13.10;99.90;;;;;;5060999;28;20977;-60
2022/01/29 11:41:45;;;;;;;2.92;0.85;;;13.20;99.90;;;;;;5061774;28;20169;-60
2022/01/29 11:44:25;;;;;;;2.88;1.23;;;13.20;99.90;;;;;;5041271;28;20063;-60
2022/01/29 11:46:52;;;;;;;1.73;0.90;;;13.20;99.90;;;;;;5061386;28;20464;-60
2022/01/29 11:49:19;;;;;;;2.05;0.80;;;13.30;99.90;;;;;;5061060;28;20391;-60
2022/01/29 11:51:50;;;;;;;1.52;0.70;;;13.30;99.90;;;;;;5061797;28;20068;-61
2022/01/29 11:54:18;;;;;;;2.95;1.33;;;13.30;99.90;;;;;;5060378;28;20067;-60
2022/01/29 11:56:44;;;;;;;1.88;0.93;;;13.30;99.90;;;;;;5060385;28;20072;-62
2022/01/29 11:59:20;;;;;;;1.38;0.60;;;13.50;99.90;;;;;;5059299;28;20081;-60
2022/01/29 12:01:55;;;;;;;1.92;0.90;;;13.50;99.90;;;;;;5063758;28;20409;-60
2022/01/29 12:04:23;;;;;;;1.33;0.80;;;13.60;99.90;;;;;;5064452;28;20494;-60
2022/01/29 12:07:10;;;;;;;0.88;0.57;;;13.80;99.90;;;;;;5063813;28;20539;-61
2022/01/29 12:09:51;;;;;;;1.52;0.80;;;14.00;99.90;;;;;;5065102;28;20075;-61
2022/01/29 12:12:24;;;;;;;3.05;0.82;;;14.20;99.90;;;;;;5065467;28;20090;-60
2022/01/29 12:15:11;;;;;;;1.45;0.73;;;14.20;99.90;;;;;;5062025;28;20061;-61
2022/01/29 12:17:58;;;;;;;1.80;0.80;;;14.00;99.90;;;;;;5061738;28;20048;-61
2022/01/29 12:20:25;;;;;;;1.63;0.65;;;14.00;99.90;;;;;;5064546;28;20048;-61
2022/01/29 12:23:01;;;;;;;2.45;0.90;;;14.10;99.90;;;;;;5064759;28;20041;-61
2022/01/29 12:25:28;;;;;;;1.10;0.60;;;14.20;99.90;;;;;;5063083;28;20132;-59
2022/01/29 12:28:02;;;;;;;3.88;0.90;;;14.10;99.90;;;;;;5063402;28;20524;-61
2022/01/29 12:30:37;;;;;;;2.20;0.82;;;14.20;99.90;;;;;;5063037;28;20084;-61
2022/01/29 12:33:06;;;;;;;2.63;0.95;;;14.00;99.90;;;;;;5064412;28;20048;-61
2022/01/29 12:35:43;;;;;;;1.73;0.80;;;14.00;99.90;;;;;;5064740;28;20114;-60
2022/01/29 12:38:11;;;;;;;1.92;0.65;;;14.10;99.90;;;;;;5064659;28;20562;-60
2022/01/29 12:40:40;;;;;;;1.55;0.75;;;14.20;99.90;;;;;;5064676;28;20095;-61
2022/01/29 12:43:24;;;;;;;2.17;0.93;;;14.30;99.90;;;;;;5063186;28;20798;-60
2022/01/29 12:45:52;;;;;;;1.38;0.68;;;14.30;99.90;;;;;;5063756;28;20363;-61
2022/01/29 12:48:19;;;;;;;2.17;0.70;;;14.40;99.90;;;;;;5064281;28;20552;-61
2022/01/29 12:50:46;;;;;;;2.17;0.75;;;14.40;99.90;;;;;;5062953;28;20188;-61
2022/01/29 12:53:16;;;;;;;1.33;0.80;;;14.10;99.90;;;;;;5064473;28;20098;-61
2022/01/29 12:55:43;;;;;;;1.55;0.70;;;14.00;99.90;;;;;;5062705;28;20282;-61
2022/01/29 12:58:10;;;;;;;1.20;0.70;;;14.20;99.90;;;;;;5061812;28;20502;-60
2022/01/29 13:00:37;;;;;;;1.45;0.75;;;14.30;99.90;;;;;;5064219;28;20495;-61
2022/01/29 13:03:08;;;;;;;3.63;1.15;;;14.20;99.90;;;;;;5064074;28;20053;-61
2022/01/29 13:05:42;;;;;;;2.33;0.90;;;14.40;99.90;;;;;;5063894;28;20137;-59